»·PEaware :: AMMO11 KEND-KEND

AMMO11 :: KEND-KEND

FLIGHT INFORMATION

Flight Status: Arrived
Operator: Unknown
More flights by this operator :: More flights under this callsign
Pilot: Harold M. (22202)
Aircraft: BEECH AIRCRAFT T-6A TEXAN
(TEX2)
More flights by this aircraft type
Origin: KEND Vance AFB
United States
Destination: KEND Vance AFB
United States
More flights between these airports :: More routes between these airports
Route: +END09 PLANNS STEREO
File this flight plan on PilotEdge
Remarks: E via WDG
Altitude:
(Current/Filed)
0ft
Speed:
(Current/Filed)
0kts
Departed: 30-Mar-20 10:43 AM
Arrived: 30-Mar-20 11:25 AM
Distance/Time
Traveled:
0nm/0:42
Distance/Time
To Go:
Arrived

Flight Plot

Page will automatically refresh every two minutes.


Map Options




Map Legend


Flown Route
Filed Route
Departure Airport
Arrival Airport
Navaid (VOR, NDB)
Fix

Horizontal Profiles

Position Reports

Time Latitude Longitude Heading Altitude Ground
Speed
30-Mar-20 10:24 36.346971 -97.909990 216 1279ft 0kts
30-Mar-20 10:26 36.346950 -97.910005 209 1279ft 0kts
30-Mar-20 10:26 36.346950 -97.910005 209 1279ft 0kts
30-Mar-20 10:27 36.346950 -97.910005 209 1279ft 0kts
30-Mar-20 10:28 36.346950 -97.910005 209 1279ft 0kts
30-Mar-20 10:29 36.346950 -97.910005 209 1279ft 0kts
30-Mar-20 10:30 36.346950 -97.910005 209 1279ft 0kts
30-Mar-20 10:31 36.346950 -97.910005 209 1279ft 0kts
30-Mar-20 10:32 36.346950 -97.910005 209 1279ft 0kts
30-Mar-20 10:39 36.346971 -97.909990 216 1279ft 0kts
30-Mar-20 10:40 36.346971 -97.909990 216 1279ft 0kts
30-Mar-20 10:41 36.346971 -97.909990 216 1279ft 0kts
30-Mar-20 10:42 36.345113 -97.911037 179 1281ft 64kts
30-Mar-20 10:43 36.304242 -97.909411 179 2933ft 174kts
30-Mar-20 10:44 36.252828 -97.902043 174 5068ft 222kts
30-Mar-20 10:45 36.261333 -97.869798 349 5089ft 244kts
30-Mar-20 10:46 36.330366 -97.887192 340 5089ft 256kts
30-Mar-20 10:47 36.396842 -97.915352 356 4932ft 254kts
30-Mar-20 10:48 36.466810 -97.905829 4 4998ft 253kts
30-Mar-20 10:49 36.535156 -97.897258 3 5849ft 228kts
30-Mar-20 10:50 36.601253 -97.892409 336 6049ft 242kts
30-Mar-20 10:51 36.630409 -97.966825 290 5933ft 247kts
30-Mar-20 10:52 36.654892 -98.045906 292 6002ft 245kts
30-Mar-20 10:53 36.678813 -98.124324 286 4867ft 236kts
30-Mar-20 10:54 36.689700 -98.201482 277 4383ft 227kts
30-Mar-20 10:55 36.702611 -98.279957 280 4485ft 240kts
30-Mar-20 10:56 36.718837 -98.360566 281 4446ft 242kts
30-Mar-20 10:57 36.733615 -98.441760 281 4517ft 239kts
30-Mar-20 10:58 36.747727 -98.522696 282 4519ft 241kts
30-Mar-20 10:59 36.763808 -98.602856 278 3593ft 232kts
30-Mar-20 11:00 36.790565 -98.654246 356 3119ft 182kts
30-Mar-20 11:01 36.797284 -98.669910 183 2221ft 131kts
30-Mar-20 11:02 36.767944 -98.670497 180 1686ft 121kts
30-Mar-20 11:03 36.761944 -98.651438 359 3019ft 202kts
30-Mar-20 11:04 36.797074 -98.662451 241 2351ft 129kts
30-Mar-20 11:05 36.770393 -98.670458 181 1576ft 120kts
30-Mar-20 11:06 36.744880 -98.637498 101 3696ft 204kts
30-Mar-20 11:07 36.732000 -98.562185 104 4514ft 247kts
30-Mar-20 11:08 36.713713 -98.476376 107 4555ft 262kts
30-Mar-20 11:09 36.694531 -98.387932 103 4500ft 266kts
30-Mar-20 11:10 36.678141 -98.300661 106 5399ft 237kts
30-Mar-20 11:11 36.667263 -98.218475 94 6029ft 258kts
30-Mar-20 11:12 36.665189 -98.127798 91 6089ft 263kts
30-Mar-20 11:13 36.664155 -98.036069 90 6062ft 261kts
30-Mar-20 11:14 36.664687 -97.945624 88 6010ft 260kts
30-Mar-20 11:15 36.664796 -97.855439 91 5935ft 261kts
30-Mar-20 11:16 36.637348 -97.796505 186 4911ft 244kts
30-Mar-20 11:17 36.570469 -97.800181 188 3378ft 237kts
30-Mar-20 11:18 36.514433 -97.835808 223 2465ft 231kts
30-Mar-20 11:19 36.478135 -97.891436 232 2300ft 198kts
30-Mar-20 11:20 36.427471 -97.907761 182 2267ft 199kts
30-Mar-20 11:21 36.372654 -97.910770 181 2294ft 197kts
30-Mar-20 11:22 36.345570 -97.895795 4 2248ft 156kts
30-Mar-20 11:23 36.349316 -97.910938 182 1359ft 107kts
30-Mar-20 11:24 36.333977 -97.910995 171 1290ft 21kts

Navigation Log

Ident Type
Flight plan parsing failed, navigation log unavailable